sensor_id;sensor_type;location;lat;lon;timestamp;pressure;altitude;pressure_sealevel;temperature;humidity
81545;BME280;70990;50.618;7.346;2023-08-07T00:00:11;97855.22;;;10.79;91.45
81545;BME280;70990;50.618;7.346;2023-08-07T00:02:37;97872.00;;;10.88;91.47
81545;BME280;70990;50.618;7.346;2023-08-07T00:05:05;97857.56;;;10.80;90.83
81545;BME280;70990;50.618;7.346;2023-08-07T00:07:32;97873.97;;;10.87;91.24
81545;BME280;70990;50.618;7.346;2023-08-07T00:09:58;97875.25;;;10.83;90.44
81545;BME280;70990;50.618;7.346;2023-08-07T00:12:25;97869.59;;;10.90;90.76
81545;BME280;70990;50.618;7.346;2023-08-07T00:14:51;97864.22;;;10.83;90.35
81545;BME280;70990;50.618;7.346;2023-08-07T00:17:18;97861.72;;;10.88;89.99
81545;BME280;70990;50.618;7.346;2023-08-07T00:19:44;97865.69;;;10.87;90.46
81545;BME280;70990;50.618;7.346;2023-08-07T00:22:11;97881.84;;;10.89;89.92
81545;BME280;70990;50.618;7.346;2023-08-07T00:24:37;97861.31;;;10.90;90.78
81545;BME280;70990;50.618;7.346;2023-08-07T00:27:04;97859.47;;;10.83;90.15
81545;BME280;70990;50.618;7.346;2023-08-07T00:29:30;97867.66;;;10.87;90.38
81545;BME280;70990;50.618;7.346;2023-08-07T00:31:58;97876.16;;;10.76;90.87
81545;BME280;70990;50.618;7.346;2023-08-07T00:34:25;97871.44;;;10.77;90.50
81545;BME280;70990;50.618;7.346;2023-08-07T00:36:51;97865.41;;;10.82;90.42
81545;BME280;70990;50.618;7.346;2023-08-07T00:39:18;97865.28;;;10.89;90.90
81545;BME280;70990;50.618;7.346;2023-08-07T00:41:44;97857.25;;;10.75;90.37
81545;BME280;70990;50.618;7.346;2023-08-07T00:44:11;97866.97;;;10.83;90.06
81545;BME280;70990;50.618;7.346;2023-08-07T00:46:38;97856.41;;;10.78;90.74
81545;BME280;70990;50.618;7.346;2023-08-07T00:49:05;97868.16;;;10.82;90.23
81545;BME280;70990;50.618;7.346;2023-08-07T00:51:33;97881.16;;;10.85;90.70
81545;BME280;70990;50.618;7.346;2023-08-07T00:54:00;97865.19;;;10.73;90.02
81545;BME280;70990;50.618;7.346;2023-08-07T00:56:29;97877.44;;;10.72;90.69
81545;BME280;70990;50.618;7.346;2023-08-07T00:58:57;97875.97;;;10.87;90.53
81545;BME280;70990;50.618;7.346;2023-08-07T01:01:25;97879.00;;;10.73;90.20
81545;BME280;70990;50.618;7.346;2023-08-07T01:03:51;97884.03;;;10.78;90.55
81545;BME280;70990;50.618;7.346;2023-08-07T01:06:19;97877.81;;;10.74;90.49
81545;BME280;70990;50.618;7.346;2023-08-07T01:08:46;97885.94;;;10.81;91.41
81545;BME280;70990;50.618;7.346;2023-08-07T01:11:36;97884.75;;;10.82;91.04
81545;BME280;70990;50.618;7.346;2023-08-07T01:19:31;97880.22;;;10.72;91.94
81545;BME280;70990;50.618;7.346;2023-08-07T01:22:11;97884.66;;;10.66;91.46
81545;BME280;70990;50.618;7.346;2023-08-07T01:24:41;97889.28;;;10.72;91.13
81545;BME280;70990;50.618;7.346;2023-08-07T01:27:17;97888.88;;;10.74;91.46
81545;BME280;70990;50.618;7.346;2023-08-07T01:29:59;97886.94;;;10.71;91.36
81545;BME280;70990;50.618;7.346;2023-08-07T01:32:32;97899.84;;;10.77;91.34
81545;BME280;70990;50.618;7.346;2023-08-07T01:35:02;97884.41;;;10.80;92.04
81545;BME280;70990;50.618;7.346;2023-08-07T01:37:31;97888.88;;;10.74;90.98
81545;BME280;70990;50.618;7.346;2023-08-07T01:40:01;97910.47;;;10.79;91.45
81545;BME280;70990;50.618;7.346;2023-08-07T01:42:28;97885.84;;;10.65;90.87
81545;BME280;70990;50.618;7.346;2023-08-07T01:44:55;97899.13;;;10.73;90.94
81545;BME280;70990;50.618;7.346;2023-08-07T01:47:23;97895.34;;;10.64;91.04
81545;BME280;70990;50.618;7.346;2023-08-07T01:49:50;97903.50;;;10.71;90.68
81545;BME280;70990;50.618;7.346;2023-08-07T01:52:16;97900.38;;;10.69;90.85
81545;BME280;70990;50.618;7.346;2023-08-07T01:54:43;97889.47;;;10.62;90.72
81545;BME280;70990;50.618;7.346;2023-08-07T01:57:09;97893.78;;;10.63;90.57
81545;BME280;70990;50.618;7.346;2023-08-07T01:59:36;97903.22;;;10.65;90.99
81545;BME280;70990;50.618;7.346;2023-08-07T02:02:02;97903.34;;;10.58;91.27
81545;BME280;70990;50.618;7.346;2023-08-07T02:04:29;97910.13;;;10.77;90.85
81545;BME280;70990;50.618;7.346;2023-08-07T02:06:56;97911.09;;;10.67;90.95
81545;BME280;70990;50.618;7.346;2023-08-07T02:09:22;97906.28;;;10.71;91.14
81545;BME280;70990;50.618;7.346;2023-08-07T02:11:49;97914.97;;;10.69;90.30
81545;BME280;70990;50.618;7.346;2023-08-07T02:14:15;97910.97;;;10.74;89.81
81545;BME280;70990;50.618;7.346;2023-08-07T02:16:42;97916.34;;;10.81;89.61
81545;BME280;70990;50.618;7.346;2023-08-07T02:19:08;97914.38;;;10.81;90.26
81545;BME280;70990;50.618;7.346;2023-08-07T02:21:35;97918.69;;;10.82;89.67
81545;BME280;70990;50.618;7.346;2023-08-07T02:24:02;97900.56;;;10.81;90.61
81545;BME280;70990;50.618;7.346;2023-08-07T02:26:28;97909.75;;;10.75;90.12
81545;BME280;70990;50.618;7.346;2023-08-07T02:28:55;97898.22;;;10.80;89.88
81545;BME280;70990;50.618;7.346;2023-08-07T02:31:21;97894.44;;;10.70;89.90
81545;BME280;70990;50.618;7.346;2023-08-07T02:33:48;97901.47;;;10.75;90.13
81545;BME280;70990;50.618;7.346;2023-08-07T02:36:14;97913.16;;;10.82;90.03
81545;BME280;70990;50.618;7.346;2023-08-07T02:38:41;97922.75;;;10.78;89.61
81545;BME280;70990;50.618;7.346;2023-08-07T02:41:07;97918.53;;;10.70;90.15
81545;BME280;70990;50.618;7.346;2023-08-07T02:43:34;97916.50;;;10.74;90.69
81545;BME280;70990;50.618;7.346;2023-08-07T02:46:00;97913.50;;;10.65;91.00
81545;BME280;70990;50.618;7.346;2023-08-07T02:48:27;97924.78;;;10.74;91.20
81545;BME280;70990;50.618;7.346;2023-08-07T02:50:53;97918.19;;;10.68;91.05
81545;BME280;70990;50.618;7.346;2023-08-07T02:53:20;97930.84;;;10.65;90.99
81545;BME280;70990;50.618;7.346;2023-08-07T02:55:46;97923.75;;;10.64;91.04
81545;BME280;70990;50.618;7.346;2023-08-07T02:58:13;97933.13;;;10.70;91.27
81545;BME280;70990;50.618;7.346;2023-08-07T03:00:40;97918.91;;;10.72;90.40
81545;BME280;70990;50.618;7.346;2023-08-07T03:03:06;97918.13;;;10.71;90.68
81545;BME280;70990;50.618;7.346;2023-08-07T03:05:33;97926.03;;;10.69;90.24
81545;BME280;70990;50.618;7.346;2023-08-07T03:07:59;97936.13;;;10.79;90.62
81545;BME280;70990;50.618;7.346;2023-08-07T03:10:26;97936.31;;;10.69;91.00
81545;BME280;70990;50.618;7.346;2023-08-07T03:12:54;97929.66;;;10.66;90.81
81545;BME280;70990;50.618;7.346;2023-08-07T03:15:20;97937.28;;;10.59;91.30
81545;BME280;70990;50.618;7.346;2023-08-07T03:17:47;97931.75;;;10.59;90.63
81545;BME280;70990;50.618;7.346;2023-08-07T03:20:14;97924.72;;;10.54;90.52
81545;BME280;70990;50.618;7.346;2023-08-07T03:22:40;97931.81;;;10.55;90.34
81545;BME280;70990;50.618;7.346;2023-08-07T03:25:07;97922.97;;;10.64;90.94
81545;BME280;70990;50.618;7.346;2023-08-07T03:27:33;97930.44;;;10.67;91.26
81545;BME280;70990;50.618;7.346;2023-08-07T03:30:03;97922.97;;;10.64;91.73
81545;BME280;70990;50.618;7.346;2023-08-07T03:32:29;97937.88;;;10.46;91.59
81545;BME280;70990;50.618;7.346;2023-08-07T03:34:56;97944.00;;;10.58;91.74
81545;BME280;70990;50.618;7.346;2023-08-07T03:37:23;97935.94;;;10.43;91.54
81545;BME280;70990;50.618;7.346;2023-08-07T03:39:49;97936.31;;;10.45;91.13
81545;BME280;70990;50.618;7.346;2023-08-07T03:42:16;97938.13;;;10.56;91.42
81545;BME280;70990;50.618;7.346;2023-08-07T03:44:45;97938.25;;;10.48;91.31
81545;BME280;70990;50.618;7.346;2023-08-07T03:47:11;97942.91;;;10.51;91.19
81545;BME280;70990;50.618;7.346;2023-08-07T03:49:38;97944.22;;;10.43;91.33
81545;BME280;70990;50.618;7.346;2023-08-07T03:52:05;97938.66;;;10.47;91.28
81545;BME280;70990;50.618;7.346;2023-08-07T03:54:32;97955.94;;;10.51;91.60
81545;BME280;70990;50.618;7.346;2023-08-07T03:56:58;97953.06;;;10.58;91.43
81545;BME280;70990;50.618;7.346;2023-08-07T03:59:25;97957.69;;;10.65;92.39
81545;BME280;70990;50.618;7.346;2023-08-07T04:01:52;97961.16;;;10.45;91.51
81545;BME280;70990;50.618;7.346;2023-08-07T04:04:18;97939.91;;;10.42;91.54
81545;BME280;70990;50.618;7.346;2023-08-07T04:06:45;97951.56;;;10.54;91.93
81545;BME280;70990;50.618;7.346;2023-08-07T04:09:13;97943.03;;;10.44;91.91
81545;BME280;70990;50.618;7.346;2023-08-07T04:11:40;97948.44;;;10.51;92.17
81545;BME280;70990;50.618;7.346;2023-08-07T04:14:06;97940.03;;;10.59;91.88
81545;BME280;70990;50.618;7.346;2023-08-07T04:16:33;97957.19;;;10.46;92.11
81545;BME280;70990;50.618;7.346;2023-08-07T04:18:59;97948.19;;;10.42;92.62
81545;BME280;70990;50.618;7.346;2023-08-07T04:21:26;97950.91;;;10.46;92.68
81545;BME280;70990;50.618;7.346;2023-08-07T04:23:53;97969.81;;;10.47;92.22
81545;BME280;70990;50.618;7.346;2023-08-07T04:26:19;97964.34;;;10.44;92.38
81545;BME280;70990;50.618;7.346;2023-08-07T04:28:46;97962.94;;;10.32;92.73
81545;BME280;70990;50.618;7.346;2023-08-07T04:31:12;97963.50;;;10.47;93.12
81545;BME280;70990;50.618;7.346;2023-08-07T04:33:39;97967.25;;;10.33;92.98
81545;BME280;70990;50.618;7.346;2023-08-07T04:36:05;97950.38;;;10.28;93.14
81545;BME280;70990;50.618;7.346;2023-08-07T04:38:32;97963.00;;;10.29;93.15
81545;BME280;70990;50.618;7.346;2023-08-07T04:40:58;97973.00;;;10.19;93.57
81545;BME280;70990;50.618;7.346;2023-08-07T04:43:25;97978.47;;;10.23;93.71
81545;BME280;70990;50.618;7.346;2023-08-07T04:45:52;97973.97;;;10.32;93.48
81545;BME280;70990;50.618;7.346;2023-08-07T04:48:19;97979.59;;;10.25;93.64
81545;BME280;70990;50.618;7.346;2023-08-07T04:50:49;97984.31;;;10.28;94.07
81545;BME280;70990;50.618;7.346;2023-08-07T04:53:15;97975.13;;;10.35;94.18
81545;BME280;70990;50.618;7.346;2023-08-07T04:55:42;97966.28;;;10.20;92.94
81545;BME280;70990;50.618;7.346;2023-08-07T04:58:09;97968.25;;;10.20;93.42
81545;BME280;70990;50.618;7.346;2023-08-07T05:00:35;97975.19;;;10.31;93.25
81545;BME280;70990;50.618;7.346;2023-08-07T05:03:02;97979.59;;;10.25;93.47
81545;BME280;70990;50.618;7.346;2023-08-07T05:05:29;97977.69;;;10.22;93.35
81545;BME280;70990;50.618;7.346;2023-08-07T05:07:57;97973.28;;;10.25;93.47
81545;BME280;70990;50.618;7.346;2023-08-07T05:10:24;97965.47;;;10.23;92.59
81545;BME280;70990;50.618;7.346;2023-08-07T05:12:51;97985.41;;;10.34;92.84
81545;BME280;70990;50.618;7.346;2023-08-07T05:15:17;97983.72;;;10.40;92.07
81545;BME280;70990;50.618;7.346;2023-08-07T05:17:44;97987.66;;;10.43;92.70
81545;BME280;70990;50.618;7.346;2023-08-07T05:20:10;97982.06;;;10.46;92.37
81545;BME280;70990;50.618;7.346;2023-08-07T05:22:37;97973.41;;;10.44;92.13
81545;BME280;70990;50.618;7.346;2023-08-07T05:25:04;97991.91;;;10.47;91.95
81545;BME280;70990;50.618;7.346;2023-08-07T05:27:30;97983.16;;;10.52;92.43
81545;BME280;70990;50.618;7.346;2023-08-07T05:29:59;97978.34;;;10.57;91.82
81545;BME280;70990;50.618;7.346;2023-08-07T05:32:25;97983.09;;;10.56;92.19
81545;BME280;70990;50.618;7.346;2023-08-07T05:34:52;97988.56;;;10.60;91.64
81545;BME280;70990;50.618;7.346;2023-08-07T05:37:19;98008.69;;;10.60;91.71
81545;BME280;70990;50.618;7.346;2023-08-07T05:39:46;97982.44;;;10.48;91.32
81545;BME280;70990;50.618;7.346;2023-08-07T05:42:12;97997.28;;;10.58;91.80
81545;BME280;70990;50.618;7.346;2023-08-07T05:44:39;97996.75;;;10.67;91.82
81545;BME280;70990;50.618;7.346;2023-08-07T05:47:06;98001.28;;;10.54;91.08
81545;BME280;70990;50.618;7.346;2023-08-07T05:49:33;97993.38;;;10.56;90.79
81545;BME280;70990;50.618;7.346;2023-08-07T05:51:59;98005.94;;;10.60;90.67
81545;BME280;70990;50.618;7.346;2023-08-07T05:54:28;97991.81;;;10.55;91.02
81545;BME280;70990;50.618;7.346;2023-08-07T05:56:54;97985.63;;;10.70;90.76
81545;BME280;70990;50.618;7.346;2023-08-07T05:59:21;97986.91;;;10.66;90.44
81545;BME280;70990;50.618;7.346;2023-08-07T06:01:47;97994.66;;;10.74;90.81
81545;BME280;70990;50.618;7.346;2023-08-07T06:04:14;97998.19;;;10.75;89.83
81545;BME280;70990;50.618;7.346;2023-08-07T06:06:40;97996.97;;;10.76;90.11
81545;BME280;70990;50.618;7.346;2023-08-07T06:09:07;97995.41;;;10.75;90.06
81545;BME280;70990;50.618;7.346;2023-08-07T06:11:34;97994.09;;;10.83;89.69
81545;BME280;70990;50.618;7.346;2023-08-07T06:14:01;97994.53;;;10.81;89.60
81545;BME280;70990;50.618;7.346;2023-08-07T06:16:27;98018.97;;;10.83;89.66
81545;BME280;70990;50.618;7.346;2023-08-07T06:18:54;98004.78;;;10.81;90.46
81545;BME280;70990;50.618;7.346;2023-08-07T06:21:21;98022.94;;;10.82;89.67
81545;BME280;70990;50.618;7.346;2023-08-07T06:23:50;98011.47;;;10.83;88.96
81545;BME280;70990;50.618;7.346;2023-08-07T06:26:16;98009.56;;;10.80;88.71
81545;BME280;70990;50.618;7.346;2023-08-07T06:28:43;98007.81;;;10.90;89.01
81545;BME280;70990;50.618;7.346;2023-08-07T06:31:11;98029.81;;;10.97;89.16
81545;BME280;70990;50.618;7.346;2023-08-07T06:33:38;98029.03;;;10.97;88.49
81545;BME280;70990;50.618;7.346;2023-08-07T06:36:06;98038.47;;;10.99;88.28
81545;BME280;70990;50.618;7.346;2023-08-07T06:38:32;98021.56;;;10.93;88.81
81545;BME280;70990;50.618;7.346;2023-08-07T06:40:59;98037.41;;;10.93;88.28
81545;BME280;70990;50.618;7.346;2023-08-07T06:43:25;98043.22;;;10.99;88.97
81545;BME280;70990;50.618;7.346;2023-08-07T06:45:54;98038.16;;;10.93;88.48
81545;BME280;70990;50.618;7.346;2023-08-07T06:48:21;98046.88;;;10.92;88.82
81545;BME280;70990;50.618;7.346;2023-08-07T06:50:48;98058.16;;;10.78;88.91
81545;BME280;70990;50.618;7.346;2023-08-07T06:53:15;98037.66;;;10.75;88.93
81545;BME280;70990;50.618;7.346;2023-08-07T06:55:43;98044.94;;;10.89;90.42
81545;BME280;70990;50.618;7.346;2023-08-07T06:58:10;98043.44;;;10.84;89.88
81545;BME280;70990;50.618;7.346;2023-08-07T07:00:36;98034.09;;;10.75;89.60
81545;BME280;70990;50.618;7.346;2023-08-07T07:03:04;98056.84;;;10.86;89.46
81545;BME280;70990;50.618;7.346;2023-08-07T07:05:32;98060.91;;;10.78;90.28
81545;BME280;70990;50.618;7.346;2023-08-07T07:07:59;98059.34;;;10.77;90.09
81545;BME280;70990;50.618;7.346;2023-08-07T07:10:25;98043.41;;;10.61;89.63
81545;BME280;70990;50.618;7.346;2023-08-07T07:12:51;98054.00;;;10.66;89.87
81545;BME280;70990;50.618;7.346;2023-08-07T07:15:18;98060.78;;;10.62;90.39
81545;BME280;70990;50.618;7.346;2023-08-07T07:17:45;98071.50;;;10.56;91.30
81545;BME280;70990;50.618;7.346;2023-08-07T07:20:11;98071.47;;;10.60;91.97
81545;BME280;70990;50.618;7.346;2023-08-07T07:22:38;98062.94;;;10.47;91.36
81545;BME280;70990;50.618;7.346;2023-08-07T07:25:05;98069.88;;;10.59;91.98
81545;BME280;70990;50.618;7.346;2023-08-07T07:27:31;98079.91;;;10.49;91.74
81545;BME280;70990;50.618;7.346;2023-08-07T07:29:58;98089.69;;;10.54;91.80
81545;BME280;70990;50.618;7.346;2023-08-07T07:32:28;98068.97;;;10.38;92.11
81545;BME280;70990;50.618;7.346;2023-08-07T07:34:54;98085.84;;;10.47;92.41
81545;BME280;70990;50.618;7.346;2023-08-07T07:37:21;98086.19;;;10.49;92.11
81545;BME280;70990;50.618;7.346;2023-08-07T07:39:48;98108.03;;;10.40;92.00
81545;BME280;70990;50.618;7.346;2023-08-07T07:42:14;98094.63;;;10.39;92.48
81545;BME280;70990;50.618;7.346;2023-08-07T07:44:41;98092.72;;;10.32;92.79
81545;BME280;70990;50.618;7.346;2023-08-07T07:47:08;98091.84;;;10.39;92.51
81545;BME280;70990;50.618;7.346;2023-08-07T07:49:38;98102.88;;;10.42;92.48
81545;BME280;70990;50.618;7.346;2023-08-07T07:52:05;98113.56;;;10.40;93.21
81545;BME280;70990;50.618;7.346;2023-08-07T07:54:32;98097.69;;;10.44;92.88
81545;BME280;70990;50.618;7.346;2023-08-07T07:56:58;98101.41;;;10.34;92.82
81545;BME280;70990;50.618;7.346;2023-08-07T07:59:25;98104.84;;;10.42;93.29
81545;BME280;70990;50.618;7.346;2023-08-07T08:01:52;98111.88;;;10.46;92.71
81545;BME280;70990;50.618;7.346;2023-08-07T08:04:19;98108.91;;;10.34;93.23
81545;BME280;70990;50.618;7.346;2023-08-07T08:06:46;98110.31;;;10.45;93.10
81545;BME280;70990;50.618;7.346;2023-08-07T08:09:12;98106.00;;;10.44;92.49
81545;BME280;70990;50.618;7.346;2023-08-07T08:11:39;98117.78;;;10.48;92.98
81545;BME280;70990;50.618;7.346;2023-08-07T08:14:06;98110.38;;;10.42;93.37
81545;BME280;70990;50.618;7.346;2023-08-07T08:16:33;98122.00;;;10.57;92.59
81545;BME280;70990;50.618;7.346;2023-08-07T08:19:00;98138.19;;;10.58;92.48
81545;BME280;70990;50.618;7.346;2023-08-07T08:21:26;98120.59;;;10.45;91.72
81545;BME280;70990;50.618;7.346;2023-08-07T08:23:56;98136.66;;;10.54;91.70
81545;BME280;70990;50.618;7.346;2023-08-07T08:26:22;98150.38;;;10.61;91.87
81545;BME280;70990;50.618;7.346;2023-08-07T08:28:49;98152.50;;;10.80;92.57
81545;BME280;70990;50.618;7.346;2023-08-07T08:31:15;98146.97;;;10.80;91.41
81545;BME280;70990;50.618;7.346;2023-08-07T08:33:42;98155.69;;;10.75;90.92
81545;BME280;70990;50.618;7.346;2023-08-07T08:36:08;98147.63;;;10.87;91.86
81545;BME280;70990;50.618;7.346;2023-08-07T08:38:35;98151.97;;;10.88;90.78
81545;BME280;70990;50.618;7.346;2023-08-07T08:41:04;98150.84;;;10.86;91.21
81545;BME280;70990;50.618;7.346;2023-08-07T08:43:34;98165.28;;;10.97;91.39
81545;BME280;70990;50.618;7.346;2023-08-07T08:46:01;98152.75;;;10.89;90.94
81545;BME280;70990;50.618;7.346;2023-08-07T08:48:30;98166.63;;;11.12;91.81
81545;BME280;70990;50.618;7.346;2023-08-07T08:51:01;98147.75;;;11.07;91.01
81545;BME280;70990;50.618;7.346;2023-08-07T08:53:28;98164.22;;;11.14;91.48
81545;BME280;70990;50.618;7.346;2023-08-07T08:55:55;98149.22;;;11.15;91.05
81545;BME280;70990;50.618;7.346;2023-08-07T08:58:23;98177.38;;;11.33;91.55
81545;BME280;70990;50.618;7.346;2023-08-07T09:00:49;98185.69;;;11.33;90.61
81545;BME280;70990;50.618;7.346;2023-08-07T09:03:18;98175.56;;;11.23;90.36
81545;BME280;70990;50.618;7.346;2023-08-07T09:05:45;98187.44;;;11.20;90.92
81545;BME280;70990;50.618;7.346;2023-08-07T09:08:13;98185.00;;;11.26;91.14
81545;BME280;70990;50.618;7.346;2023-08-07T09:10:40;98195.34;;;11.22;91.23
81545;BME280;70990;50.618;7.346;2023-08-07T09:13:11;98178.63;;;11.29;91.02
81545;BME280;70990;50.618;7.346;2023-08-07T09:15:40;98192.28;;;11.40;90.48
81545;BME280;70990;50.618;7.346;2023-08-07T09:18:07;98202.28;;;11.33;90.13
81545;BME280;70990;50.618;7.346;2023-08-07T09:20:35;98200.53;;;11.43;89.83
81545;BME280;70990;50.618;7.346;2023-08-07T09:23:03;98188.53;;;11.53;90.29
81545;BME280;70990;50.618;7.346;2023-08-07T09:25:30;98200.88;;;11.49;89.77
81545;BME280;70990;50.618;7.346;2023-08-07T09:27:57;98200.31;;;11.57;89.94
81545;BME280;70990;50.618;7.346;2023-08-07T09:30:28;98211.88;;;11.52;90.18
81545;BME280;70990;50.618;7.346;2023-08-07T09:33:00;98201.28;;;11.74;89.31
81545;BME280;70990;50.618;7.346;2023-08-07T09:35:29;98204.53;;;11.92;88.78
81545;BME280;70990;50.618;7.346;2023-08-07T09:37:57;98193.91;;;12.10;88.95
81545;BME280;70990;50.618;7.346;2023-08-07T09:40:24;98221.47;;;12.18;89.69
81545;BME280;70990;50.618;7.346;2023-08-07T09:42:53;98205.56;;;12.22;88.40
81545;BME280;70990;50.618;7.346;2023-08-07T09:45:24;98211.78;;;12.49;89.78
81545;BME280;70990;50.618;7.346;2023-08-07T09:47:58;98222.97;;;12.22;87.34
81545;BME280;70990;50.618;7.346;2023-08-07T09:50:25;98217.13;;;11.93;87.74
81545;BME280;70990;50.618;7.346;2023-08-07T09:52:52;98225.63;;;12.06;88.47
81545;BME280;70990;50.618;7.346;2023-08-07T09:55:19;98228.72;;;12.11;86.92
81545;BME280;70990;50.618;7.346;2023-08-07T09:57:46;98226.84;;;12.25;87.89
81545;BME280;70990;50.618;7.346;2023-08-07T10:00:12;98215.94;;;11.94;85.60
81545;BME280;70990;50.618;7.346;2023-08-07T10:02:42;98230.84;;;12.00;87.77
81545;BME280;70990;50.618;7.346;2023-08-07T10:05:10;98237.44;;;12.10;87.96
81545;BME280;70990;50.618;7.346;2023-08-07T10:07:40;98226.66;;;11.92;87.58
81545;BME280;70990;50.618;7.346;2023-08-07T10:10:08;98241.53;;;12.02;86.97
81545;BME280;70990;50.618;7.346;2023-08-07T10:12:36;98246.47;;;11.91;87.72
81545;BME280;70990;50.618;7.346;2023-08-07T10:15:03;98261.59;;;11.86;87.95
81545;BME280;70990;50.618;7.346;2023-08-07T10:17:31;98265.38;;;11.96;88.02
81545;BME280;70990;50.618;7.346;2023-08-07T10:19:58;98260.91;;;12.02;89.06
81545;BME280;70990;50.618;7.346;2023-08-07T10:22:26;98254.69;;;11.94;88.92
81545;BME280;70990;50.618;7.346;2023-08-07T10:24:53;98256.97;;;11.99;88.83
81545;BME280;70990;50.618;7.346;2023-08-07T10:27:23;98265.19;;;12.06;88.77
81545;BME280;70990;50.618;7.346;2023-08-07T10:29:52;98267.13;;;12.09;89.35
81545;BME280;70990;50.618;7.346;2023-08-07T10:32:20;98264.75;;;12.31;89.04
81545;BME280;70990;50.618;7.346;2023-08-07T10:34:51;98262.53;;;12.23;88.60
81545;BME280;70990;50.618;7.346;2023-08-07T10:37:44;98278.19;;;12.33;88.76
81545;BME280;70990;50.618;7.346;2023-08-07T10:40:12;98274.09;;;12.18;87.71
81545;BME280;70990;50.618;7.346;2023-08-07T10:45:21;98274.25;;;12.73;88.15
81545;BME280;70990;50.618;7.346;2023-08-07T10:50:29;98291.06;;;12.86;85.92
81545;BME280;70990;50.618;7.346;2023-08-07T10:52:55;98282.28;;;12.87;86.52
81545;BME280;70990;50.618;7.346;2023-08-07T10:55:22;98284.22;;;13.30;87.14
81545;BME280;70990;50.618;7.346;2023-08-07T10:57:48;98270.50;;;13.23;86.60
81545;BME280;70990;50.618;7.346;2023-08-07T11:00:15;98289.34;;;13.84;84.38
81545;BME280;70990;50.618;7.346;2023-08-07T11:02:42;98273.69;;;14.06;85.87
81545;BME280;70990;50.618;7.346;2023-08-07T11:05:08;98277.25;;;14.23;84.26
81545;BME280;70990;50.618;7.346;2023-08-07T11:07:39;98287.38;;;14.62;81.26
81545;BME280;70990;50.618;7.346;2023-08-07T11:10:06;98286.09;;;14.50;83.98
81545;BME280;70990;50.618;7.346;2023-08-07T11:12:33;98275.03;;;14.18;82.34
81545;BME280;70990;50.618;7.346;2023-08-07T11:14:59;98279.28;;;13.73;83.06
81545;BME280;70990;50.618;7.346;2023-08-07T11:17:27;98295.06;;;13.77;83.28
81545;BME280;70990;50.618;7.346;2023-08-07T11:19:55;98292.41;;;13.17;82.21
81545;BME280;70990;50.618;7.346;2023-08-07T11:22:22;98306.13;;;13.05;83.73
81545;BME280;70990;50.618;7.346;2023-08-07T11:24:50;98298.50;;;12.89;83.27
81545;BME280;70990;50.618;7.346;2023-08-07T11:27:17;98303.81;;;13.00;82.55
81545;BME280;70990;50.618;7.346;2023-08-07T11:29:50;98291.53;;;13.56;82.90
81545;BME280;70990;50.618;7.346;2023-08-07T11:32:18;98293.66;;;14.33;83.51
81545;BME280;70990;50.618;7.346;2023-08-07T11:34:50;98289.22;;;14.52;78.39
81545;BME280;70990;50.618;7.346;2023-08-07T11:37:17;98280.72;;;14.27;77.40
81545;BME280;70990;50.618;7.346;2023-08-07T11:39:44;98289.59;;;14.38;81.80
81545;BME280;70990;50.618;7.346;2023-08-07T11:42:11;98279.69;;;14.53;79.61
81545;BME280;70990;50.618;7.346;2023-08-07T11:44:37;98276.94;;;14.94;75.35
81545;BME280;70990;50.618;7.346;2023-08-07T11:47:04;98290.44;;;15.76;79.32
81545;BME280;70990;50.618;7.346;2023-08-07T11:49:31;98286.06;;;16.12;78.91
81545;BME280;70990;50.618;7.346;2023-08-07T11:51:58;98290.66;;;15.68;73.32
81545;BME280;70990;50.618;7.346;2023-08-07T11:54:25;98293.00;;;15.70;78.44
81545;BME280;70990;50.618;7.346;2023-08-07T11:56:54;98288.78;;;15.53;72.78
81545;BME280;70990;50.618;7.346;2023-08-07T11:59:21;98291.13;;;15.54;74.30
81545;BME280;70990;50.618;7.346;2023-08-07T12:01:47;98283.78;;;15.86;74.55
81545;BME280;70990;50.618;7.346;2023-08-07T12:04:14;98277.91;;;16.18;74.31
81545;BME280;70990;50.618;7.346;2023-08-07T12:06:53;98286.94;;;16.35;70.84
81545;BME280;70990;50.618;7.346;2023-08-07T12:09:20;98259.09;;;16.44;69.45
81545;BME280;70990;50.618;7.346;2023-08-07T12:11:47;98274.28;;;16.43;68.13
81545;BME280;70990;50.618;7.346;2023-08-07T12:14:14;98289.44;;;16.54;70.84
81545;BME280;70990;50.618;7.346;2023-08-07T12:16:44;98265.50;;;16.32;66.99
81545;BME280;70990;50.618;7.346;2023-08-07T12:19:11;98268.56;;;16.12;68.54
81545;BME280;70990;50.618;7.346;2023-08-07T12:21:37;98264.28;;;15.60;68.83
81545;BME280;70990;50.618;7.346;2023-08-07T12:24:06;98291.28;;;15.34;69.18
81545;BME280;70990;50.618;7.346;2023-08-07T12:26:33;98295.38;;;15.17;70.05
81545;BME280;70990;50.618;7.346;2023-08-07T12:29:00;98288.13;;;15.74;66.23
81545;BME280;70990;50.618;7.346;2023-08-07T12:31:26;98297.66;;;16.24;69.43
81545;BME280;70990;50.618;7.346;2023-08-07T12:33:53;98292.94;;;16.33;71.31
81545;BME280;70990;50.618;7.346;2023-08-07T12:36:20;98287.22;;;17.06;67.00
81545;BME280;70990;50.618;7.346;2023-08-07T12:38:47;98272.56;;;16.92;67.05
81545;BME280;70990;50.618;7.346;2023-08-07T12:41:14;98295.34;;;16.09;64.03
81545;BME280;70990;50.618;7.346;2023-08-07T12:43:44;98299.13;;;15.65;63.86
81545;BME280;70990;50.618;7.346;2023-08-07T12:46:10;98285.56;;;15.25;65.87
81545;BME280;70990;50.618;7.346;2023-08-07T12:48:40;98284.13;;;15.21;66.73
81545;BME280;70990;50.618;7.346;2023-08-07T12:51:06;98283.19;;;16.03;64.25
81545;BME280;70990;50.618;7.346;2023-08-07T12:53:33;98280.81;;;16.96;64.34
81545;BME280;70990;50.618;7.346;2023-08-07T12:56:00;98281.56;;;17.18;59.22
81545;BME280;70990;50.618;7.346;2023-08-07T12:58:26;98279.81;;;17.33;59.93
81545;BME280;70990;50.618;7.346;2023-08-07T13:00:55;98264.19;;;17.45;58.28
81545;BME280;70990;50.618;7.346;2023-08-07T13:03:21;98263.69;;;17.68;59.67
81545;BME280;70990;50.618;7.346;2023-08-07T13:05:48;98276.50;;;17.57;57.93
81545;BME280;70990;50.618;7.346;2023-08-07T13:08:15;98280.28;;;17.10;55.98
81545;BME280;70990;50.618;7.346;2023-08-07T13:10:41;98273.72;;;17.88;57.07